sensor_id;sensor_type;location;lat;lon;timestamp;temperature;humidity
14405;DHT22;14983;50.866;4.304;2022-10-31T00:00:40;14.60;99.90
14405;DHT22;14983;50.866;4.304;2022-10-31T00:03:08;14.70;99.90
14405;DHT22;14983;50.866;4.304;2022-10-31T00:05:42;14.80;99.90
14405;DHT22;14983;50.866;4.304;2022-10-31T00:08:13;14.80;99.90
14405;DHT22;14983;50.866;4.304;2022-10-31T00:10:47;14.80;99.90
14405;DHT22;14983;50.866;4.304;2022-10-31T00:13:15;14.80;99.90
14405;DHT22;14983;50.866;4.304;2022-10-31T00:15:46;14.80;99.90
14405;DHT22;14983;50.866;4.304;2022-10-31T00:18:18;14.60;99.90
14405;DHT22;14983;50.866;4.304;2022-10-31T00:20:58;14.60;99.90
14405;DHT22;14983;50.866;4.304;2022-10-31T00:23:29;16.10;99.90
14405;DHT22;14983;50.866;4.304;2022-10-31T00:26:00;14.50;99.90
14405;DHT22;14983;50.866;4.304;2022-10-31T00:28:28;14.40;99.90
14405;DHT22;14983;50.866;4.304;2022-10-31T00:31:00;15.30;99.90
14405;DHT22;14983;50.866;4.304;2022-10-31T00:33:30;15.00;99.90
14405;DHT22;14983;50.866;4.304;2022-10-31T00:36:07;14.30;99.90
14405;DHT22;14983;50.866;4.304;2022-10-31T00:38:40;14.20;99.90
14405;DHT22;14983;50.866;4.304;2022-10-31T00:41:10;14.20;99.90
14405;DHT22;14983;50.866;4.304;2022-10-31T00:43:39;14.20;99.90
14405;DHT22;14983;50.866;4.304;2022-10-31T00:46:09;14.20;99.90
14405;DHT22;14983;50.866;4.304;2022-10-31T00:48:37;14.20;99.90
14405;DHT22;14983;50.866;4.304;2022-10-31T00:51:06;14.10;99.90
14405;DHT22;14983;50.866;4.304;2022-10-31T00:53:34;14.20;99.90
14405;DHT22;14983;50.866;4.304;2022-10-31T00:56:03;14.60;99.90
14405;DHT22;14983;50.866;4.304;2022-10-31T00:58:33;14.10;99.90
14405;DHT22;14983;50.866;4.304;2022-10-31T01:01:03;14.80;99.90
14405;DHT22;14983;50.866;4.304;2022-10-31T01:03:31;14.10;99.90
14405;DHT22;14983;50.866;4.304;2022-10-31T01:06:06;13.70;99.90
14405;DHT22;14983;50.866;4.304;2022-10-31T01:08:34;14.00;99.90
14405;DHT22;14983;50.866;4.304;2022-10-31T01:11:07;14.00;99.90
14405;DHT22;14983;50.866;4.304;2022-10-31T01:13:36;14.00;99.90
14405;DHT22;14983;50.866;4.304;2022-10-31T01:16:05;14.00;99.90
14405;DHT22;14983;50.866;4.304;2022-10-31T01:18:34;14.00;99.90
14405;DHT22;14983;50.866;4.304;2022-10-31T01:21:07;14.00;99.90
14405;DHT22;14983;50.866;4.304;2022-10-31T01:23:35;13.90;99.90
14405;DHT22;14983;50.866;4.304;2022-10-31T01:26:06;14.10;99.90
14405;DHT22;14983;50.866;4.304;2022-10-31T01:28:38;13.90;99.90
14405;DHT22;14983;50.866;4.304;2022-10-31T01:31:07;13.90;99.90
14405;DHT22;14983;50.866;4.304;2022-10-31T01:33:37;13.90;99.90
14405;DHT22;14983;50.866;4.304;2022-10-31T01:36:14;13.90;99.90
14405;DHT22;14983;50.866;4.304;2022-10-31T01:38:44;13.90;99.90
14405;DHT22;14983;50.866;4.304;2022-10-31T01:41:15;14.00;99.90
14405;DHT22;14983;50.866;4.304;2022-10-31T01:43:52;14.00;99.90
14405;DHT22;14983;50.866;4.304;2022-10-31T01:46:23;13.90;99.90
14405;DHT22;14983;50.866;4.304;2022-10-31T01:48:53;13.90;99.90
14405;DHT22;14983;50.866;4.304;2022-10-31T01:51:25;13.90;99.90
14405;DHT22;14983;50.866;4.304;2022-10-31T01:53:56;15.00;99.90
14405;DHT22;14983;50.866;4.304;2022-10-31T01:56:25;13.80;99.90
14405;DHT22;14983;50.866;4.304;2022-10-31T01:58:55;13.80;99.90
14405;DHT22;14983;50.866;4.304;2022-10-31T02:01:27;13.70;99.90
14405;DHT22;14983;50.866;4.304;2022-10-31T02:03:59;13.70;99.90
14405;DHT22;14983;50.866;4.304;2022-10-31T02:06:33;14.00;99.90
14405;DHT22;14983;50.866;4.304;2022-10-31T02:09:04;14.40;99.90
14405;DHT22;14983;50.866;4.304;2022-10-31T02:11:35;13.80;99.90
14405;DHT22;14983;50.866;4.304;2022-10-31T02:14:03;13.70;99.90
14405;DHT22;14983;50.866;4.304;2022-10-31T02:16:31;14.60;99.90
14405;DHT22;14983;50.866;4.304;2022-10-31T02:19:02;13.70;99.90
14405;DHT22;14983;50.866;4.304;2022-10-31T02:21:44;14.20;99.90
14405;DHT22;14983;50.866;4.304;2022-10-31T02:24:51;13.70;99.90
14405;DHT22;14983;50.866;4.304;2022-10-31T02:27:32;13.60;99.90
14405;DHT22;14983;50.866;4.304;2022-10-31T02:30:11;13.60;99.90
14405;DHT22;14983;50.866;4.304;2022-10-31T02:35:42;13.60;99.90
14405;DHT22;14983;50.866;4.304;2022-10-31T02:38:21;13.40;99.90
14405;DHT22;14983;50.866;4.304;2022-10-31T02:41:09;13.60;99.90
14405;DHT22;14983;50.866;4.304;2022-10-31T02:43:45;14.80;99.90
14405;DHT22;14983;50.866;4.304;2022-10-31T02:46:24;13.60;99.90
14405;DHT22;14983;50.866;4.304;2022-10-31T02:48:56;13.60;99.90
14405;DHT22;14983;50.866;4.304;2022-10-31T02:51:27;13.50;99.90
14405;DHT22;14983;50.866;4.304;2022-10-31T02:53:55;13.50;99.90
14405;DHT22;14983;50.866;4.304;2022-10-31T02:56:22;13.40;99.90
14405;DHT22;14983;50.866;4.304;2022-10-31T02:58:51;13.40;99.90
14405;DHT22;14983;50.866;4.304;2022-10-31T03:01:43;13.60;99.90
14405;DHT22;14983;50.866;4.304;2022-10-31T03:07:15;13.40;99.90
14405;DHT22;14983;50.866;4.304;2022-10-31T03:09:52;13.40;99.90
14405;DHT22;14983;50.866;4.304;2022-10-31T03:12:40;13.40;99.90
14405;DHT22;14983;50.866;4.304;2022-10-31T03:15:13;13.30;99.90
14405;DHT22;14983;50.866;4.304;2022-10-31T03:17:49;13.30;99.90
14405;DHT22;14983;50.866;4.304;2022-10-31T03:20:22;14.40;99.90
14405;DHT22;14983;50.866;4.304;2022-10-31T03:23:11;14.00;99.90
14405;DHT22;14983;50.866;4.304;2022-10-31T03:25:44;13.10;99.90
14405;DHT22;14983;50.866;4.304;2022-10-31T03:28:14;13.50;99.90
14405;DHT22;14983;50.866;4.304;2022-10-31T03:30:44;13.10;99.90
14405;DHT22;14983;50.866;4.304;2022-10-31T03:33:16;13.90;99.90
14405;DHT22;14983;50.866;4.304;2022-10-31T03:35:48;13.20;99.90
14405;DHT22;14983;50.866;4.304;2022-10-31T03:38:19;13.10;99.90
14405;DHT22;14983;50.866;4.304;2022-10-31T03:40:48;13.10;99.90
14405;DHT22;14983;50.866;4.304;2022-10-31T03:43:21;13.20;99.90
14405;DHT22;14983;50.866;4.304;2022-10-31T03:45:51;13.20;99.90
14405;DHT22;14983;50.866;4.304;2022-10-31T03:48:24;13.10;99.90
14405;DHT22;14983;50.866;4.304;2022-10-31T03:51:07;13.10;99.90
14405;DHT22;14983;50.866;4.304;2022-10-31T03:53:45;13.10;99.90
14405;DHT22;14983;50.866;4.304;2022-10-31T03:56:27;13.00;99.90
14405;DHT22;14983;50.866;4.304;2022-10-31T03:59:05;12.90;99.90
14405;DHT22;14983;50.866;4.304;2022-10-31T04:01:52;12.90;99.90
14405;DHT22;14983;50.866;4.304;2022-10-31T04:04:22;13.00;99.90
14405;DHT22;14983;50.866;4.304;2022-10-31T04:06:53;13.10;99.90
14405;DHT22;14983;50.866;4.304;2022-10-31T04:09:23;13.00;99.90
14405;DHT22;14983;50.866;4.304;2022-10-31T04:11:53;12.80;99.90
14405;DHT22;14983;50.866;4.304;2022-10-31T04:14:22;15.10;99.90
14405;DHT22;14983;50.866;4.304;2022-10-31T04:16:54;13.10;99.90
14405;DHT22;14983;50.866;4.304;2022-10-31T04:19:21;13.40;99.90
14405;DHT22;14983;50.866;4.304;2022-10-31T04:21:50;12.70;99.90
14405;DHT22;14983;50.866;4.304;2022-10-31T04:24:18;12.80;99.90
14405;DHT22;14983;50.866;4.304;2022-10-31T04:26:49;12.70;99.90
14405;DHT22;14983;50.866;4.304;2022-10-31T04:29:17;13.00;99.90
14405;DHT22;14983;50.866;4.304;2022-10-31T04:31:46;12.70;99.90
14405;DHT22;14983;50.866;4.304;2022-10-31T04:34:14;12.70;99.90
14405;DHT22;14983;50.866;4.304;2022-10-31T04:36:41;12.10;99.90
14405;DHT22;14983;50.866;4.304;2022-10-31T04:39:08;12.70;99.90
14405;DHT22;14983;50.866;4.304;2022-10-31T04:41:37;12.80;99.90
14405;DHT22;14983;50.866;4.304;2022-10-31T04:44:10;12.70;99.90
14405;DHT22;14983;50.866;4.304;2022-10-31T04:46:40;12.70;99.90
14405;DHT22;14983;50.866;4.304;2022-10-31T04:49:07;12.70;99.90
14405;DHT22;14983;50.866;4.304;2022-10-31T04:51:35;12.70;99.90
14405;DHT22;14983;50.866;4.304;2022-10-31T04:54:04;12.70;99.90
14405;DHT22;14983;50.866;4.304;2022-10-31T04:56:32;12.60;99.90
14405;DHT22;14983;50.866;4.304;2022-10-31T04:59:02;12.50;99.90
14405;DHT22;14983;50.866;4.304;2022-10-31T05:01:29;12.50;99.90
14405;DHT22;14983;50.866;4.304;2022-10-31T05:03:58;12.50;99.90
14405;DHT22;14983;50.866;4.304;2022-10-31T05:06:26;13.80;99.90
14405;DHT22;14983;50.866;4.304;2022-10-31T05:08:54;12.60;99.90
14405;DHT22;14983;50.866;4.304;2022-10-31T05:11:21;12.60;99.90
14405;DHT22;14983;50.866;4.304;2022-10-31T05:13:48;12.70;99.90
14405;DHT22;14983;50.866;4.304;2022-10-31T05:16:22;12.70;99.90
14405;DHT22;14983;50.866;4.304;2022-10-31T05:18:49;12.70;99.90
14405;DHT22;14983;50.866;4.304;2022-10-31T05:21:16;12.70;99.90
14405;DHT22;14983;50.866;4.304;2022-10-31T05:23:46;12.90;99.90
14405;DHT22;14983;50.866;4.304;2022-10-31T05:26:23;12.80;99.90
14405;DHT22;14983;50.866;4.304;2022-10-31T05:28:56;12.80;99.90
14405;DHT22;14983;50.866;4.304;2022-10-31T05:31:26;12.60;99.90
14405;DHT22;14983;50.866;4.304;2022-10-31T05:33:56;13.00;99.90
14405;DHT22;14983;50.866;4.304;2022-10-31T05:36:26;12.70;99.90
14405;DHT22;14983;50.866;4.304;2022-10-31T05:38:58;12.70;99.90
14405;DHT22;14983;50.866;4.304;2022-10-31T05:41:26;12.60;99.90
14405;DHT22;14983;50.866;4.304;2022-10-31T05:43:57;13.10;99.90
14405;DHT22;14983;50.866;4.304;2022-10-31T05:46:28;12.70;99.90
14405;DHT22;14983;50.866;4.304;2022-10-31T05:49:01;14.30;99.90
14405;DHT22;14983;50.866;4.304;2022-10-31T05:51:28;12.60;99.90
14405;DHT22;14983;50.866;4.304;2022-10-31T05:54:02;12.60;99.90
14405;DHT22;14983;50.866;4.304;2022-10-31T05:56:39;12.70;99.90
14405;DHT22;14983;50.866;4.304;2022-10-31T05:59:14;12.80;99.90
14405;DHT22;14983;50.866;4.304;2022-10-31T06:01:46;12.90;99.90
14405;DHT22;14983;50.866;4.304;2022-10-31T06:04:14;13.00;99.90
14405;DHT22;14983;50.866;4.304;2022-10-31T06:06:41;13.10;99.90
14405;DHT22;14983;50.866;4.304;2022-10-31T06:09:08;13.10;99.90
14405;DHT22;14983;50.866;4.304;2022-10-31T06:11:37;13.10;99.90
14405;DHT22;14983;50.866;4.304;2022-10-31T06:14:07;13.20;99.90
14405;DHT22;14983;50.866;4.304;2022-10-31T06:16:37;13.10;99.90
14405;DHT22;14983;50.866;4.304;2022-10-31T06:19:08;14.10;99.90
14405;DHT22;14983;50.866;4.304;2022-10-31T06:21:36;13.10;99.90
14405;DHT22;14983;50.866;4.304;2022-10-31T06:24:06;13.40;99.90
14405;DHT22;14983;50.866;4.304;2022-10-31T06:26:37;13.10;99.90
14405;DHT22;14983;50.866;4.304;2022-10-31T06:29:06;12.90;99.90
14405;DHT22;14983;50.866;4.304;2022-10-31T06:31:33;13.10;99.90
14405;DHT22;14983;50.866;4.304;2022-10-31T06:34:06;13.20;99.90
14405;DHT22;14983;50.866;4.304;2022-10-31T06:36:33;13.20;99.90
14405;DHT22;14983;50.866;4.304;2022-10-31T06:39:01;13.20;99.90
14405;DHT22;14983;50.866;4.304;2022-10-31T06:41:28;11.70;99.90
14405;DHT22;14983;50.866;4.304;2022-10-31T06:43:55;13.30;99.90
14405;DHT22;14983;50.866;4.304;2022-10-31T06:46:23;13.40;99.90
14405;DHT22;14983;50.866;4.304;2022-10-31T06:48:50;13.40;99.90
14405;DHT22;14983;50.866;4.304;2022-10-31T06:51:19;13.40;99.90
14405;DHT22;14983;50.866;4.304;2022-10-31T06:53:48;13.50;99.90
14405;DHT22;14983;50.866;4.304;2022-10-31T06:56:21;13.50;99.90
14405;DHT22;14983;50.866;4.304;2022-10-31T06:58:48;13.50;99.90
14405;DHT22;14983;50.866;4.304;2022-10-31T07:01:16;13.50;99.90
14405;DHT22;14983;50.866;4.304;2022-10-31T07:03:49;13.60;99.90
14405;DHT22;14983;50.866;4.304;2022-10-31T07:06:19;13.50;99.90
14405;DHT22;14983;50.866;4.304;2022-10-31T07:08:49;13.50;99.90
14405;DHT22;14983;50.866;4.304;2022-10-31T07:11:18;13.60;99.90
14405;DHT22;14983;50.866;4.304;2022-10-31T07:13:51;13.50;99.90
14405;DHT22;14983;50.866;4.304;2022-10-31T07:16:20;13.60;99.90
14405;DHT22;14983;50.866;4.304;2022-10-31T07:18:48;13.70;99.90
14405;DHT22;14983;50.866;4.304;2022-10-31T07:21:19;13.70;99.90
14405;DHT22;14983;50.866;4.304;2022-10-31T07:23:47;13.70;99.90
14405;DHT22;14983;50.866;4.304;2022-10-31T07:26:15;14.00;99.90
14405;DHT22;14983;50.866;4.304;2022-10-31T07:28:42;13.90;99.90
14405;DHT22;14983;50.866;4.304;2022-10-31T07:31:10;14.40;99.90
14405;DHT22;14983;50.866;4.304;2022-10-31T07:33:38;14.00;99.90
14405;DHT22;14983;50.866;4.304;2022-10-31T07:36:05;13.90;99.90
14405;DHT22;14983;50.866;4.304;2022-10-31T07:38:34;14.10;99.90
14405;DHT22;14983;50.866;4.304;2022-10-31T07:41:06;14.20;99.90
14405;DHT22;14983;50.866;4.304;2022-10-31T07:43:39;14.20;99.90
14405;DHT22;14983;50.866;4.304;2022-10-31T07:46:09;14.20;99.90
14405;DHT22;14983;50.866;4.304;2022-10-31T07:48:39;14.20;99.90
14405;DHT22;14983;50.866;4.304;2022-10-31T07:51:09;14.20;99.90
14405;DHT22;14983;50.866;4.304;2022-10-31T07:53:44;14.10;99.90
14405;DHT22;14983;50.866;4.304;2022-10-31T07:56:12;15.30;99.90
14405;DHT22;14983;50.866;4.304;2022-10-31T07:58:45;14.40;99.90
14405;DHT22;14983;50.866;4.304;2022-10-31T08:01:34;14.50;99.90
14405;DHT22;14983;50.866;4.304;2022-10-31T08:04:07;14.60;99.90
14405;DHT22;14983;50.866;4.304;2022-10-31T08:06:40;14.80;99.90
14405;DHT22;14983;50.866;4.304;2022-10-31T08:09:08;15.00;99.90
14405;DHT22;14983;50.866;4.304;2022-10-31T08:11:36;15.20;99.90
14405;DHT22;14983;50.866;4.304;2022-10-31T08:14:03;15.30;99.90
14405;DHT22;14983;50.866;4.304;2022-10-31T08:16:31;15.30;99.90
14405;DHT22;14983;50.866;4.304;2022-10-31T08:19:01;15.40;99.90
14405;DHT22;14983;50.866;4.304;2022-10-31T08:21:33;15.20;99.90
14405;DHT22;14983;50.866;4.304;2022-10-31T08:24:05;15.40;99.90
14405;DHT22;14983;50.866;4.304;2022-10-31T08:26:35;15.10;99.90
14405;DHT22;14983;50.866;4.304;2022-10-31T08:29:03;16.10;99.90
14405;DHT22;14983;50.866;4.304;2022-10-31T08:31:30;15.30;99.90
14405;DHT22;14983;50.866;4.304;2022-10-31T08:33:59;15.30;99.90
14405;DHT22;14983;50.866;4.304;2022-10-31T08:36:27;15.30;99.90
14405;DHT22;14983;50.866;4.304;2022-10-31T08:38:55;15.50;99.90
14405;DHT22;14983;50.866;4.304;2022-10-31T08:41:22;15.60;99.90
14405;DHT22;14983;50.866;4.304;2022-10-31T08:43:54;15.30;99.90
14405;DHT22;14983;50.866;4.304;2022-10-31T08:46:25;15.40;99.90
14405;DHT22;14983;50.866;4.304;2022-10-31T08:49:00;15.60;99.90
14405;DHT22;14983;50.866;4.304;2022-10-31T08:51:27;15.60;99.90
14405;DHT22;14983;50.866;4.304;2022-10-31T08:53:55;16.00;99.90
14405;DHT22;14983;50.866;4.304;2022-10-31T08:56:30;15.60;99.90
14405;DHT22;14983;50.866;4.304;2022-10-31T08:59:14;15.30;99.90
14405;DHT22;14983;50.866;4.304;2022-10-31T09:01:53;15.50;99.90
14405;DHT22;14983;50.866;4.304;2022-10-31T09:04:23;15.30;99.90
14405;DHT22;14983;50.866;4.304;2022-10-31T09:06:50;16.20;99.90
14405;DHT22;14983;50.866;4.304;2022-10-31T09:09:17;15.50;99.90
14405;DHT22;14983;50.866;4.304;2022-10-31T09:11:50;15.20;99.90
14405;DHT22;14983;50.866;4.304;2022-10-31T09:14:18;15.40;99.90
14405;DHT22;14983;50.866;4.304;2022-10-31T09:16:51;15.50;99.90
14405;DHT22;14983;50.866;4.304;2022-10-31T09:19:23;15.50;99.90
14405;DHT22;14983;50.866;4.304;2022-10-31T09:21:52;15.70;99.90
14405;DHT22;14983;50.866;4.304;2022-10-31T09:24:22;15.80;99.90
14405;DHT22;14983;50.866;4.304;2022-10-31T09:26:52;15.80;99.90
14405;DHT22;14983;50.866;4.304;2022-10-31T09:29:26;16.00;99.90
14405;DHT22;14983;50.866;4.304;2022-10-31T09:31:55;16.20;99.90
14405;DHT22;14983;50.866;4.304;2022-10-31T09:34:29;15.50;99.90
14405;DHT22;14983;50.866;4.304;2022-10-31T09:37:02;15.70;99.90
14405;DHT22;14983;50.866;4.304;2022-10-31T09:39:36;15.70;99.90
14405;DHT22;14983;50.866;4.304;2022-10-31T09:42:37;15.80;99.90
14405;DHT22;14983;50.866;4.304;2022-10-31T09:45:14;15.80;99.90
14405;DHT22;14983;50.866;4.304;2022-10-31T09:47:59;15.90;99.90
14405;DHT22;14983;50.866;4.304;2022-10-31T09:50:35;15.90;99.90
14405;DHT22;14983;50.866;4.304;2022-10-31T09:53:21;16.10;99.90
14405;DHT22;14983;50.866;4.304;2022-10-31T09:55:51;16.40;99.90
14405;DHT22;14983;50.866;4.304;2022-10-31T09:58:23;16.40;99.90
14405;DHT22;14983;50.866;4.304;2022-10-31T10:00:54;16.50;99.90
14405;DHT22;14983;50.866;4.304;2022-10-31T10:03:30;16.80;99.90
14405;DHT22;14983;50.866;4.304;2022-10-31T10:06:09;16.90;99.90
14405;DHT22;14983;50.866;4.304;2022-10-31T10:08:38;16.80;99.90
14405;DHT22;14983;50.866;4.304;2022-10-31T10:11:42;16.80;99.90
14405;DHT22;14983;50.866;4.304;2022-10-31T10:14:21;17.00;99.90
14405;DHT22;14983;50.866;4.304;2022-10-31T10:17:01;17.10;99.90
14405;DHT22;14983;50.866;4.304;2022-10-31T10:19:53;17.00;99.90
14405;DHT22;14983;50.866;4.304;2022-10-31T10:22:29;17.00;99.90
14405;DHT22;14983;50.866;4.304;2022-10-31T10:25:14;17.20;99.90
14405;DHT22;14983;50.866;4.304;2022-10-31T10:27:51;17.30;99.90
14405;DHT22;14983;50.866;4.304;2022-10-31T10:30:34;17.40;99.90
14405;DHT22;14983;50.866;4.304;2022-10-31T10:33:12;17.40;99.90
14405;DHT22;14983;50.866;4.304;2022-10-31T10:35:42;17.40;99.90
14405;DHT22;14983;50.866;4.304;2022-10-31T10:38:15;17.30;99.90
14405;DHT22;14983;50.866;4.304;2022-10-31T10:40:44;17.20;99.90
14405;DHT22;14983;50.866;4.304;2022-10-31T10:43:22;17.10;99.90
14405;DHT22;14983;50.866;4.304;2022-10-31T10:46:00;19.00;99.90
14405;DHT22;14983;50.866;4.304;2022-10-31T10:48:49;17.10;99.90
14405;DHT22;14983;50.866;4.304;2022-10-31T10:51:23;17.10;99.90
14405;DHT22;14983;50.866;4.304;2022-10-31T10:54:02;17.00;99.90
14405;DHT22;14983;50.866;4.304;2022-10-31T10:56:39;17.20;99.90
14405;DHT22;14983;50.866;4.304;2022-10-31T10:59:12;17.40;99.90
14405;DHT22;14983;50.866;4.304;2022-10-31T11:01:40;17.40;99.90
14405;DHT22;14983;50.866;4.304;2022-10-31T11:04:30;17.50;99.90
14405;DHT22;14983;50.866;4.304;2022-10-31T11:07:03;17.50;99.90
14405;DHT22;14983;50.866;4.304;2022-10-31T11:09:31;17.50;99.90
14405;DHT22;14983;50.866;4.304;2022-10-31T11:12:08;17.50;99.90
14405;DHT22;14983;50.866;4.304;2022-10-31T11:14:44;17.70;99.90
14405;DHT22;14983;50.866;4.304;2022-10-31T11:17:22;18.50;99.90
14405;DHT22;14983;50.866;4.304;2022-10-31T11:20:25;18.40;99.90
14405;DHT22;14983;50.866;4.304;2022-10-31T11:23:20;18.10;99.90
14405;DHT22;14983;50.866;4.304;2022-10-31T11:25:50;18.00;99.90
14405;DHT22;14983;50.866;4.304;2022-10-31T11:28:18;18.00;99.90
14405;DHT22;14983;50.866;4.304;2022-10-31T11:30:48;17.90;99.90
14405;DHT22;14983;50.866;4.304;2022-10-31T11:33:22;18.30;99.90
14405;DHT22;14983;50.866;4.304;2022-10-31T11:35:54;18.70;1.00
14405;DHT22;14983;50.866;4.304;2022-10-31T11:38:33;18.60;99.90
14405;DHT22;14983;50.866;4.304;2022-10-31T11:41:13;18.80;1.00
14405;DHT22;14983;50.866;4.304;2022-10-31T11:43:51;19.30;1.00
14405;DHT22;14983;50.866;4.304;2022-10-31T11:46:33;19.50;1.00
14405;DHT22;14983;50.866;4.304;2022-10-31T11:49:01;19.60;1.00
14405;DHT22;14983;50.866;4.304;2022-10-31T11:51:33;19.60;99.90
14405;DHT22;14983;50.866;4.304;2022-10-31T11:54:21;19.40;1.00
14405;DHT22;14983;50.866;4.304;2022-10-31T11:56:50;19.40;99.90
14405;DHT22;14983;50.866;4.304;2022-10-31T11:59:23;19.40;1.00
14405;DHT22;14983;50.866;4.304;2022-10-31T12:01:54;19.30;99.90
14405;DHT22;14983;50.866;4.304;2022-10-31T12:04:31;19.30;1.00
14405;DHT22;14983;50.866;4.304;2022-10-31T12:07:09;19.40;99.90
14405;DHT22;14983;50.866;4.304;2022-10-31T12:09:41;20.00;64.20
14405;DHT22;14983;50.866;4.304;2022-10-31T12:15:30;21.70;99.90
14405;DHT22;14983;50.866;4.304;2022-10-31T12:18:17;22.40;99.90
14405;DHT22;14983;50.866;4.304;2022-10-31T12:20:57;23.10;9.00
14405;DHT22;14983;50.866;4.304;2022-10-31T12:23:41;23.80;1.00
14405;DHT22;14983;50.866;4.304;2022-10-31T12:26:18;24.80;99.90
14405;DHT22;14983;50.866;4.304;2022-10-31T12:29:09;25.00;99.90
14405;DHT22;14983;50.866;4.304;2022-10-31T12:31:56;24.80;99.90
14405;DHT22;14983;50.866;4.304;2022-10-31T12:34:49;24.40;99.90
14405;DHT22;14983;50.866;4.304;2022-10-31T12:37:34;25.20;99.90
14405;DHT22;14983;50.866;4.304;2022-10-31T12:40:34;25.70;1.00
14405;DHT22;14983;50.866;4.304;2022-10-31T12:43:18;25.60;1.00
14405;DHT22;14983;50.866;4.304;2022-10-31T12:45:52;26.00;1.00
14405;DHT22;14983;50.866;4.304;2022-10-31T12:51:38;26.60;1.00
14405;DHT22;14983;50.866;4.304;2022-10-31T12:54:29;26.70;1.00
14405;DHT22;14983;50.866;4.304;2022-10-31T12:57:16;26.70;1.00
14405;DHT22;14983;50.866;4.304;2022-10-31T12:59:57;27.00;1.00
14405;DHT22;14983;50.866;4.304;2022-10-31T13:02:29;26.30;1.00
14405;DHT22;14983;50.866;4.304;2022-10-31T13:05:03;26.10;1.00
14405;DHT22;14983;50.866;4.304;2022-10-31T13:07:37;26.80;1.00
14405;DHT22;14983;50.866;4.304;2022-10-31T13:10:13;26.90;1.00
14405;DHT22;14983;50.866;4.304;2022-10-31T13:12:49;27.00;1.00
14405;DHT22;14983;50.866;4.304;2022-10-31T13:15:18;25.90;1.00
14405;DHT22;14983;50.866;4.304;2022-10-31T13:17:52;27.10;1.00
14405;DHT22;14983;50.866;4.304;2022-10-31T13:20:24;27.60;1.00
14405;DHT22;14983;50.866;4.304;2022-10-31T13:23:04;27.70;1.00
14405;DHT22;14983;50.866;4.304;2022-10-31T13:25:38;27.70;1.00
14405;DHT22;14983;50.866;4.304;2022-10-31T13:28:25;27.40;1.00
14405;DHT22;14983;50.866;4.304;2022-10-31T13:30:57;27.20;1.00
14405;DHT22;14983;50.866;4.304;2022-10-31T13:33:29;27.40;99.90
14405;DHT22;14983;50.866;4.304;2022-10-31T13:36:09;27.20;1.00
14405;DHT22;14983;50.866;4.304;2022-10-31T13:38:48;27.50;1.00
14405;DHT22;14983;50.866;4.304;2022-10-31T13:41:33;26.50;1.00
14405;DHT22;14983;50.866;4.304;2022-10-31T13:44:13;25.70;1.00
14405;DHT22;14983;50.866;4.304;2022-10-31T13:46:43;26.60;1.00
14405;DHT22;14983;50.866;4.304;2022-10-31T13:49:25;26.60;1.00
14405;DHT22;14983;50.866;4.304;2022-10-31T13:52:12;27.10;1.00
14405;DHT22;14983;50.866;4.304;2022-10-31T13:54:41;26.20;1.00
14405;DHT22;14983;50.866;4.304;2022-10-31T13:57:16;26.10;1.00
14405;DHT22;14983;50.866;4.304;2022-10-31T13:59:56;25.70;1.00
14405;DHT22;14983;50.866;4.304;2022-10-31T14:02:35;25.50;1.00
14405;DHT22;14983;50.866;4.304;2022-10-31T14:05:21;25.40;1.00
14405;DHT22;14983;50.866;4.304;2022-10-31T14:07:50;25.10;1.00
14405;DHT22;14983;50.866;4.304;2022-10-31T14:10:26;25.10;1.00
14405;DHT22;14983;50.866;4.304;2022-10-31T14:13:03;24.50;1.00
14405;DHT22;14983;50.866;4.304;2022-10-31T14:15:33;24.80;1.00
14405;DHT22;14983;50.866;4.304;2022-10-31T14:18:25;25.10;1.00
14405;DHT22;14983;50.866;4.304;2022-10-31T14:20:57;24.30;15.40
14405;DHT22;14983;50.866;4.304;2022-10-31T14:23:39;24.10;99.90
14405;DHT22;14983;50.866;4.304;2022-10-31T14:26:20;24.40;99.90
14405;DHT22;14983;50.866;4.304;2022-10-31T14:28:52;24.60;1.00
14405;DHT22;14983;50.866;4.304;2022-10-31T14:31:31;24.90;1.00
14405;DHT22;14983;50.866;4.304;2022-10-31T14:34:06;24.60;1.00
14405;DHT22;14983;50.866;4.304;2022-10-31T14:36:58;24.50;1.00
14405;DHT22;14983;50.866;4.304;2022-10-31T14:39:30;24.00;99.90
14405;DHT22;14983;50.866;4.304;2022-10-31T14:42:22;24.60;1.00
14405;DHT22;14983;50.866;4.304;2022-10-31T14:48:08;25.00;1.00
14405;DHT22;14983;50.866;4.304;2022-10-31T14:50:45;24.30;1.00
14405;DHT22;14983;50.866;4.304;2022-10-31T14:53:20;23.90;1.00
14405;DHT22;14983;50.866;4.304;2022-10-31T14:55:51;23.40;99.90
14405;DHT22;14983;50.866;4.304;2022-10-31T14:58:28;22.20;1.00
14405;DHT22;14983;50.866;4.304;2022-10-31T15:00:59;21.80;1.00
14405;DHT22;14983;50.866;4.304;2022-10-31T15:03:33;21.70;14.50
14405;DHT22;14983;50.866;4.304;2022-10-31T15:06:10;21.60;1.00
14405;DHT22;14983;50.866;4.304;2022-10-31T15:08:48;21.50;1.00
14405;DHT22;14983;50.866;4.304;2022-10-31T15:11:18;21.50;1.00
14405;DHT22;14983;50.866;4.304;2022-10-31T15:13:54;21.10;99.90
14405;DHT22;14983;50.866;4.304;2022-10-31T15:16:33;20.70;1.00
14405;DHT22;14983;50.866;4.304;2022-10-31T15:19:07;20.20;1.00
14405;DHT22;14983;50.866;4.304;2022-10-31T15:21:44;19.80;99.90
14405;DHT22;14983;50.866;4.304;2022-10-31T15:24:19;19.70;1.00
14405;DHT22;14983;50.866;4.304;2022-10-31T15:26:53;19.80;1.00
14405;DHT22;14983;50.866;4.304;2022-10-31T15:29:28;20.20;99.90
14405;DHT22;14983;50.866;4.304;2022-10-31T15:31:57;19.50;99.90
14405;DHT22;14983;50.866;4.304;2022-10-31T15:34:36;19.60;99.90
14405;DHT22;14983;50.866;4.304;2022-10-31T15:37:11;20.40;1.00
14405;DHT22;14983;50.866;4.304;2022-10-31T15:39:41;19.40;1.00
14405;DHT22;14983;50.866;4.304;2022-10-31T15:42:26;19.30;99.90
14405;DHT22;14983;50.866;4.304;2022-10-31T15:44:59;19.40;99.90
14405;DHT22;14983;50.866;4.304;2022-10-31T15:47:29;19.30;99.90
14405;DHT22;14983;50.866;4.304;2022-10-31T15:50:17;19.10;1.00
14405;DHT22;14983;50.866;4.304;2022-10-31T15:52:52;19.00;1.00
14405;DHT22;14983;50.866;4.304;2022-10-31T15:55:25;19.00;1.00
14405;DHT22;14983;50.866;4.304;2022-10-31T15:58:02;19.00;1.00
14405;DHT22;14983;50.866;4.304;2022-10-31T16:00:31;19.00;87.90
14405;DHT22;14983;50.866;4.304;2022-10-31T16:03:21;18.90;99.90
14405;DHT22;14983;50.866;4.304;2022-10-31T16:05:59;18.80;99.90
14405;DHT22;14983;50.866;4.304;2022-10-31T16:08:33;18.70;99.90
14405;DHT22;14983;50.866;4.304;2022-10-31T16:11:16;19.90;99.90
14405;DHT22;14983;50.866;4.304;2022-10-31T16:13:56;18.50;1.00
14405;DHT22;14983;50.866;4.304;2022-10-31T16:16:25;18.50;1.00
14405;DHT22;14983;50.866;4.304;2022-10-31T16:19:04;18.50;1.00
14405;DHT22;14983;50.866;4.304;2022-10-31T16:21:39;18.30;1.00
14405;DHT22;14983;50.866;4.304;2022-10-31T16:24:16;18.30;1.00
14405;DHT22;14983;50.866;4.304;2022-10-31T16:26:50;18.30;1.00
14405;DHT22;14983;50.866;4.304;2022-10-31T16:29:33;18.20;1.00
14405;DHT22;14983;50.866;4.304;2022-10-31T16:32:00;18.20;84.80